createdAt,value
2022-08-12T03:48:50.449Z,100492.47
2022-08-12T03:52:12.589Z,100492.47
2022-08-12T03:55:34.146Z,100489.88
2022-08-12T03:58:56.019Z,100492.34
2022-08-12T04:01:58.688Z,100496.97
2022-08-12T04:05:02.784Z,100501.09
2022-08-12T04:08:09.342Z,100498.41
2022-08-12T04:11:32.236Z,100501.87
2022-08-12T04:14:35.779Z,100504.84
2022-08-12T04:18:06.707Z,100505.41
2022-08-12T04:21:03.681Z,100496.97
2022-08-12T04:24:06.416Z,100502.31
2022-08-12T04:27:10.358Z,100511.13
2022-08-12T04:30:31.318Z,100499.25
2022-08-12T04:33:37.070Z,100512.00
2022-08-12T04:36:41.599Z,100514.94
2022-08-12T04:39:45.867Z,100514.72
2022-08-12T04:42:48.606Z,100514.94
2022-08-12T04:45:52.655Z,100517.56
2022-08-12T04:48:55.450Z,100524.44
2022-08-12T04:51:59.726Z,100531.22
2022-08-12T04:55:03.357Z,100535.16
2022-08-12T04:58:09.476Z,100535.44
2022-08-12T05:01:13.074Z,100539.41
2022-08-12T05:04:16.261Z,100547.66
2022-08-12T05:07:20.294Z,100548.19
2022-08-12T05:10:33.398Z,100545.72
2022-08-12T05:13:40.506Z,100546.84
2022-08-12T05:16:43.523Z,100552.88
2022-08-12T05:19:48.567Z,100546.72
2022-08-12T05:22:53.108Z,100550.75
2022-08-12T05:26:01.094Z,100543.38
2022-08-12T05:29:05.928Z,100547.25
2022-08-12T05:32:28.251Z,100553.84
2022-08-12T05:35:31.666Z,100548.31
2022-08-12T05:38:54.882Z,100550.66
2022-08-12T05:41:57.697Z,100560.50
2022-08-12T05:45:00.466Z,100559.31
2022-08-12T05:48:02.871Z,100549.94
2022-08-12T05:51:05.779Z,100554.50
2022-08-12T05:54:10.401Z,100552.09
2022-08-12T05:57:13.189Z,100554.31
2022-08-12T06:00:17.350Z,100548.97
2022-08-12T06:03:21.374Z,100547.91
2022-08-12T06:06:27.482Z,100551.50
2022-08-12T06:09:30.952Z,100553.38
2022-08-12T06:12:33.376Z,100552.41
2022-08-12T06:15:37.860Z,100547.53
2022-08-12T06:18:41.716Z,100542.09
2022-08-12T06:21:48.773Z,100549.50
2022-08-12T06:24:52.890Z,100546.53
2022-08-12T06:28:06.588Z,100542.37
2022-08-12T06:31:27.029Z,100549.16
2022-08-12T06:35:25.790Z,100553.88
2022-08-12T06:37:57.651Z,100547.34
2022-08-12T06:41:19.635Z,100551.56
2022-08-12T06:44:22.298Z,100543.97
2022-08-12T06:47:24.916Z,100543.97
2022-08-12T06:53:37.977Z,100547.56
2022-08-12T06:57:03.188Z,100554.84
2022-08-12T07:00:05.113Z,100553.91
2022-08-12T07:03:16.209Z,100554.09
2022-08-12T07:06:25.713Z,100550.19
2022-08-12T07:10:04.376Z,100555.91
2022-08-12T07:12:54.800Z,100545.13
2022-08-12T07:15:58.639Z,100544.91
2022-08-12T07:19:01.320Z,100546.59
2022-08-12T07:22:06.407Z,100547.59
2022-08-12T07:25:28.640Z,100550.31
2022-08-12T07:28:34.858Z,100557.41
2022-08-12T07:31:38.802Z,100562.22
2022-08-12T07:34:42.568Z,100558.53
2022-08-12T07:37:45.346Z,100560.47
2022-08-12T07:40:48.029Z,100566.28
2022-08-12T07:44:04.313Z,100550.81
2022-08-12T07:47:07.950Z,100555.69
2022-08-12T07:50:14.065Z,100550.78
2022-08-12T07:53:16.792Z,100562.16
2022-08-12T07:56:19.758Z,100545.09
2022-08-12T07:59:24.031Z,100547.97
2022-08-12T08:02:27.335Z,100553.50
2022-08-12T08:05:46.427Z,100553.06
2022-08-12T08:08:48.908Z,100552.19
2022-08-12T08:12:19.044Z,100555.56
2022-08-12T08:15:44.429Z,100549.16
2022-08-12T08:18:47.321Z,100543.97
2022-08-12T08:21:54.921Z,100547.66
2022-08-12T08:24:58.459Z,100552.84
2022-08-12T08:28:03.944Z,100540.38
2022-08-12T08:31:06.985Z,100544.75
2022-08-12T08:34:33.722Z,100548.09
2022-08-12T08:37:37.061Z,100541.91
2022-08-12T08:41:01.799Z,100548.72
2022-08-12T08:44:04.668Z,100537.12
2022-08-12T08:47:08.899Z,100538.97
2022-08-12T08:50:15.034Z,100538.47
2022-08-12T08:53:18.596Z,100531.66
2022-08-12T08:56:22.289Z,100534.59
2022-08-12T08:59:25.083Z,100533.16
2022-08-12T09:02:27.730Z,100528.84
2022-08-12T09:06:01.772Z,100522.88
2022-08-12T09:08:55.438Z,100526.03
2022-08-12T09:15:41.708Z,100514.22
2022-08-12T09:18:44.784Z,100509.50
2022-08-12T09:21:54.536Z,100508.47
2022-08-12T09:25:01.254Z,100509.09
2022-08-12T09:32:07.944Z,100502.59
2022-08-12T09:34:57.261Z,100506.62
2022-08-12T09:38:05.092Z,100504.09
2022-08-12T09:42:33.504Z,100498.37
2022-08-12T09:44:49.102Z,100499.88
2022-08-12T09:48:20.458Z,100490.84
2022-08-12T09:51:37.284Z,100485.66
2022-08-12T09:54:42.895Z,100490.28
2022-08-12T09:58:44.983Z,100476.00
2022-08-12T10:01:15.388Z,100483.97
2022-08-12T10:04:25.754Z,100474.53
2022-08-12T10:07:39.794Z,100479.41
2022-08-12T10:11:04.879Z,100471.72
2022-08-12T10:14:07.234Z,100473.28
2022-08-12T10:17:15.953Z,100459.72
2022-08-12T10:20:19.089Z,100449.84
2022-08-12T10:23:39.417Z,100462.97
2022-08-12T10:27:06.066Z,100459.72
2022-08-12T10:30:40.228Z,100465.59
2022-08-12T10:33:33.573Z,100460.69
2022-08-12T10:36:47.833Z,100449.12
2022-08-12T10:40:01.198Z,100456.19
2022-08-12T10:46:36.456Z,100444.84
2022-08-12T10:52:52.637Z,100435.62
2022-08-12T10:55:56.968Z,100434.72
2022-08-12T10:58:59.657Z,100426.25
2022-08-12T11:04:23.464Z,100432.31
2022-08-12T11:07:02.478Z,100442.50
2022-08-12T11:08:48.852Z,100439.44
2022-08-12T11:12:34.817Z,100442.75
2022-08-12T11:15:20.447Z,100439.88
2022-08-12T11:18:24.001Z,100451.34
2022-08-12T11:21:56.050Z,100440.56
2022-08-12T11:24:51.156Z,100439.63
2022-08-12T11:27:54.524Z,100435.81
2022-08-12T11:30:57.088Z,100436.16
2022-08-12T11:34:52.623Z,100434.72
2022-08-12T11:37:28.446Z,100432.50
2022-08-12T11:40:32.623Z,100439.63
2022-08-12T11:43:50.294Z,100425.56
2022-08-12T11:46:58.894Z,100428.62
2022-08-12T11:50:01.455Z,100434.59
2022-08-12T11:53:04.395Z,100420.91
2022-08-12T11:56:07.320Z,100424.88
2022-08-12T12:02:38.010Z,100417.69
2022-08-12T12:05:45.849Z,100413.16
2022-08-12T12:08:52.744Z,100416.50
2022-08-12T12:11:56.338Z,100414.69
2022-08-12T12:15:03.162Z,100420.78
2022-08-12T12:18:30.897Z,100420.16
2022-08-12T12:21:47.437Z,100419.09
2022-08-12T12:24:52.565Z,100409.75
2022-08-12T12:28:05.762Z,100406.41
2022-08-12T12:31:14.816Z,100398.28
2022-08-12T12:34:31.696Z,100390.41
2022-08-12T12:38:04.740Z,100388.63
2022-08-12T12:40:57.141Z,100378.94
2022-08-12T12:44:04.193Z,100381.56
2022-08-12T12:47:26.036Z,100378.84
2022-08-12T12:50:42.781Z,100375.16
2022-08-12T12:54:07.195Z,100371.22
2022-08-12T12:57:14.568Z,100365.06
2022-08-12T13:00:21.354Z,100362.13
2022-08-12T13:03:24.237Z,100353.22
2022-08-12T13:06:30.256Z,100343.88
2022-08-12T13:09:36.133Z,100349.13
2022-08-12T13:12:40.203Z,100348.53
2022-08-12T13:15:45.577Z,100347.69
2022-08-12T13:18:51.991Z,100336.88
2022-08-12T13:22:14.268Z,100333.03
2022-08-12T13:25:20.581Z,100338.09
2022-08-12T13:28:28.634Z,100333.97
2022-08-12T13:31:35.646Z,100325.75
2022-08-12T13:34:53.371Z,100322.50
2022-08-12T13:38:09.282Z,100319.88
2022-08-12T13:41:18.173Z,100323.44
2022-08-12T13:44:20.682Z,100317.97
2022-08-12T13:47:24.374Z,100328.91
2022-08-12T13:50:45.005Z,100325.19
2022-08-12T13:53:59.155Z,100321.31
2022-08-12T13:57:02.796Z,100318.53
2022-08-12T14:00:09.507Z,100313.12
2022-08-12T14:03:16.237Z,100314.19
2022-08-12T14:06:20.355Z,100303.41
2022-08-12T14:09:22.709Z,100306.88
2022-08-12T14:12:50.776Z,100302.47
2022-08-12T14:16:00.169Z,100299.00
2022-08-12T14:19:04.451Z,100293.19
2022-08-12T14:22:13.815Z,100293.44
2022-08-12T14:25:18.613Z,100291.72
2022-08-12T14:28:28.571Z,100294.25
2022-08-12T14:31:32.402Z,100291.56
2022-08-12T14:34:34.986Z,100294.25
2022-08-12T14:37:56.642Z,100281.34
2022-08-12T14:41:03.002Z,100279.28
2022-08-12T14:44:57.369Z,100283.75
2022-08-12T14:47:35.519Z,100270.53
2022-08-12T14:51:02.689Z,100269.88
2022-08-12T14:56:59.013Z,100264.31
2022-08-12T14:57:24.689Z,100270.84
2022-08-12T15:00:58.606Z,100262.56
2022-08-12T15:04:02.234Z,100257.16
2022-08-12T15:07:04.923Z,100246.56
2022-08-12T15:10:09.718Z,100248.00
2022-08-12T15:13:13.297Z,100241.75
2022-08-12T15:38:22.418Z,100218.47
2022-08-12T15:41:28.954Z,100218.47
2022-08-12T15:44:51.146Z,100214.41
2022-08-12T15:48:16.357Z,100210.34
2022-08-12T15:51:57.628Z,100211.59
2022-08-12T15:54:52.708Z,100207.41
2022-08-12T15:58:01.678Z,100207.19
2022-08-12T16:01:13.818Z,100211.94
2022-08-12T16:04:18.817Z,100208.84
2022-08-12T16:07:29.627Z,100215.44
